Time;durP1;ratioP1;P1;durP2;ratioP2;P2;SDS_P1;SDS_P2;PMS_P1;PMS_P2;Temp;Humidity;BMP_temperature;BMP_pressure;BME280_temperature;BME280_humidity;BME280_pressure;Samples;Min_cycle;Max_cycle;Signal;HPM_P1;HPM_P2
2022/01/03 00:02:59;;;;;;;;;;;17.10;41.50;;;;;;8299741;28;19925;-48
2022/01/03 00:07:00;;;;;;;;;;;17.10;41.50;;;;;;8299087;28;19917;-46
2022/01/03 00:11:00;;;;;;;;;;;17.10;41.50;;;;;;8298574;28;19928;-47
2022/01/03 00:15:01;;;;;;;;;;;17.10;41.50;;;;;;8299023;28;20318;-49
2022/01/03 00:19:02;;;;;;;;;;;17.10;41.50;;;;;;8298875;28;19921;-50
2022/01/03 00:23:03;;;;;;;;;;;17.10;41.50;;;;;;8298481;28;19925;-50
2022/01/03 00:27:08;;;;;;;;;;;17.10;41.50;;;;;;8298534;28;20253;-47
2022/01/03 00:31:09;;;;;;;;;;;17.10;41.50;;;;;;8298408;28;19913;-47
2022/01/03 00:35:14;;;;;;;;;;;17.10;41.50;;;;;;8297871;28;20371;-50
2022/01/03 00:39:14;;;;;;;;;;;17.10;41.50;;;;;;8298248;28;19914;-48
2022/01/03 00:43:15;;;;;;;;;;;17.10;41.50;;;;;;8298377;28;20059;-48
2022/01/03 00:47:16;;;;;;;;;;;17.10;41.50;;;;;;8298024;28;19921;-48
2022/01/03 00:51:19;;;;;;;;;;;17.10;41.50;;;;;;8298194;28;20291;-47
2022/01/03 00:55:20;;;;;;;;;;;17.10;41.50;;;;;;8297456;28;19971;-48
2022/01/03 00:59:28;;;;;;;;;;;17.10;41.50;;;;;;8297747;28;19914;-48
2022/01/03 01:03:33;;;;;;;;;;;17.10;41.50;;;;;;8297897;28;20338;-48
2022/01/03 01:07:34;;;;;;;;;;;17.10;41.50;;;;;;8297170;28;20294;-48
2022/01/03 01:11:35;;;;;;;;;;;17.10;41.50;;;;;;8297719;28;19923;-46
2022/01/03 01:15:36;;;;;;;;;;;17.10;41.50;;;;;;8297672;28;19913;-46
2022/01/03 01:19:36;;;;;;;;;;;17.10;41.50;;;;;;8296965;28;19924;-48
2022/01/03 01:23:41;;;;;;;;;;;17.10;41.50;;;;;;8298011;28;19961;-46
2022/01/03 01:27:52;;;;;;;;;;;17.10;41.50;;;;;;8301776;28;20263;-47
2022/01/03 01:31:54;;;;;;;;;;;17.10;41.50;;;;;;8303551;28;20263;-49
2022/01/03 01:35:57;;;;;;;;;;;17.10;41.50;;;;;;8303871;28;20390;-46
2022/01/03 01:39:58;;;;;;;;;;;17.10;41.50;;;;;;8303747;28;19917;-45
2022/01/03 01:44:00;;;;;;;;;;;17.10;41.50;;;;;;8303308;28;20284;-47
2022/01/03 01:48:01;;;;;;;;;;;17.10;41.50;;;;;;8303979;28;20008;-47
2022/01/03 01:52:02;;;;;;;;;;;17.10;41.50;;;;;;8303296;28;19920;-48
2022/01/03 01:56:04;;;;;;;;;;;17.10;41.50;;;;;;8302657;28;19918;-47
2022/01/03 02:00:04;;;;;;;;;;;17.10;41.50;;;;;;8303297;28;19914;-47
2022/01/03 02:04:16;;;;;;;;;;;17.10;41.50;;;;;;8302501;28;19933;-47
2022/01/03 02:08:26;;;;;;;;;;;17.10;41.50;;;;;;8302541;28;19918;-46
2022/01/03 02:12:27;;;;;;;;;;;17.10;41.50;;;;;;8302725;28;20267;-47
2022/01/03 02:16:28;;;;;;;;;;;17.10;41.50;;;;;;8302243;28;19918;-47
2022/01/03 02:20:29;;;;;;;;;;;17.10;41.50;;;;;;8302747;28;20405;-47
2022/01/03 02:24:29;;;;;;;;;;;17.10;41.50;;;;;;8302527;28;19933;-50
2022/01/03 02:28:30;;;;;;;;;;;17.20;41.60;;;;;;8301866;28;20011;-47
2022/01/03 02:32:30;;;;;;;;;;;17.10;41.50;;;;;;8302461;28;20421;-47
2022/01/03 02:36:31;;;;;;;;;;;17.20;41.50;;;;;;8301717;28;19920;-47
2022/01/03 02:40:32;;;;;;;;;;;17.10;41.50;;;;;;8300518;28;19928;-48
2022/01/03 02:44:32;;;;;;;;;;;17.20;41.50;;;;;;8301835;28;19940;-47
2022/01/03 02:48:32;;;;;;;;;;;17.20;41.50;;;;;;8301610;28;19917;-48
2022/01/03 02:52:33;;;;;;;;;;;17.20;41.50;;;;;;8301033;28;19918;-48
2022/01/03 02:56:34;;;;;;;;;;;17.20;41.50;;;;;;8301381;28;20259;-47
2022/01/03 03:00:36;;;;;;;;;;;17.20;41.50;;;;;;8301226;28;19924;-47
2022/01/03 03:04:53;;;;;;;;;;;17.20;41.50;;;;;;8300828;28;19972;-48
2022/01/03 03:08:53;;;;;;;;;;;17.20;41.50;;;;;;8300926;28;20374;-48
2022/01/03 03:12:54;;;;;;;;;;;17.20;41.50;;;;;;8300862;28;19964;-47
2022/01/03 03:16:55;;;;;;;;;;;17.20;41.50;;;;;;8300310;28;19940;-48
2022/01/03 03:20:57;;;;;;;;;;;17.20;41.50;;;;;;8300543;28;19968;-46
2022/01/03 03:25:00;;;;;;;;;;;17.20;41.50;;;;;;8300871;28;19956;-48
2022/01/03 03:29:00;;;;;;;;;;;17.20;42.00;;;;;;8299871;28;20823;-47
2022/01/03 03:33:05;;;;;;;;;;;17.20;41.50;;;;;;8300478;28;19922;-47
2022/01/03 03:37:06;;;;;;;;;;;17.20;41.50;;;;;;8300346;28;19917;-47
2022/01/03 03:41:06;;;;;;;;;;;17.20;41.50;;;;;;8299426;28;20391;-47
2022/01/03 03:45:07;;;;;;;;;;;17.20;41.50;;;;;;8300041;28;20390;-48
2022/01/03 03:49:09;;;;;;;;;;;17.10;41.40;;;;;;8299252;28;19918;-46
2022/01/03 03:53:10;;;;;;;;;;;17.20;41.40;;;;;;8299255;28;20012;-46
2022/01/03 03:57:12;;;;;;;;;;;17.10;41.40;;;;;;8299762;28;19924;-46
2022/01/03 04:01:12;;;;;;;;;;;17.20;41.40;;;;;;8299485;28;19953;-48
2022/01/03 04:05:13;;;;;;;;;;;17.10;41.40;;;;;;8298895;28;19932;-48
2022/01/03 04:09:13;;;;;;;;;;;17.20;41.50;;;;;;8299316;28;20367;-50
2022/01/03 04:13:14;;;;;;;;;;;17.20;41.50;;;;;;8299263;28;20403;-50
2022/01/03 04:17:15;;;;;;;;;;;17.20;41.50;;;;;;8297314;28;19997;-47
2022/01/03 04:21:15;;;;;;;;;;;17.20;41.50;;;;;;8298856;28;19913;-48
2022/01/03 04:25:16;;;;;;;;;;;17.20;41.50;;;;;;8298891;28;19925;-47
2022/01/03 04:29:16;;;;;;;;;;;17.20;41.50;;;;;;8298092;28;19940;-47
2022/01/03 04:33:17;;;;;;;;;;;17.30;41.50;;;;;;8298766;28;19918;-47
2022/01/03 04:37:17;;;;;;;;;;;17.30;41.50;;;;;;8298212;28;20008;-48
2022/01/03 04:41:18;;;;;;;;;;;17.30;41.50;;;;;;8297781;28;20290;-47
2022/01/03 04:45:19;;;;;;;;;;;17.30;41.50;;;;;;8298450;28;20272;-46
2022/01/03 04:49:19;;;;;;;;;;;17.40;41.60;;;;;;8297602;28;20379;-46
2022/01/03 04:53:25;;;;;;;;;;;17.40;41.50;;;;;;8298294;28;19923;-47
2022/01/03 04:57:25;;;;;;;;;;;17.40;41.50;;;;;;8299068;28;19924;-47
2022/01/03 05:01:25;;;;;;;;;;;17.40;41.50;;;;;;8296503;28;19923;-47
2022/01/03 05:05:26;;;;;;;;;;;17.50;41.50;;;;;;8297839;28;20228;-46
2022/01/03 05:09:26;;;;;;;;;;;17.40;41.40;;;;;;8297561;28;20053;-47
2022/01/03 05:13:27;;;;;;;;;;;17.40;41.40;;;;;;8296351;28;19922;-46
2022/01/03 05:17:29;;;;;;;;;;;17.50;41.50;;;;;;8297736;28;19928;-48
2022/01/03 05:21:29;;;;;;;;;;;17.50;41.50;;;;;;8297402;28;19917;-46
2022/01/03 05:25:30;;;;;;;;;;;17.50;41.50;;;;;;8297039;28;19921;-50
2022/01/03 05:29:30;;;;;;;;;;;17.50;41.50;;;;;;8297429;28;20425;-47
2022/01/03 05:33:31;;;;;;;;;;;17.50;41.50;;;;;;8297307;28;19917;-48
2022/01/03 05:37:31;;;;;;;;;;;17.50;41.50;;;;;;8296765;28;19917;-46
2022/01/03 05:41:32;;;;;;;;;;;17.50;41.40;;;;;;8297402;28;20069;-50
2022/01/03 05:45:32;;;;;;;;;;;17.50;41.40;;;;;;8297634;28;19933;-46
2022/01/03 05:49:33;;;;;;;;;;;17.50;41.40;;;;;;8296957;28;20290;-50
2022/01/03 05:53:33;;;;;;;;;;;17.50;41.40;;;;;;8297270;28;20437;-47
2022/01/03 05:57:34;;;;;;;;;;;17.50;41.40;;;;;;8296586;28;19925;-46
2022/01/03 06:01:35;;;;;;;;;;;17.50;41.40;;;;;;8296160;28;20385;-48
2022/01/03 06:09:38;;;;;;;;;;;17.50;41.50;;;;;;8296638;28;19917;-47
2022/01/03 06:13:38;;;;;;;;;;;17.50;41.40;;;;;;8299488;28;20008;-46
2022/01/03 06:17:39;;;;;;;;;;;17.50;41.50;;;;;;8301973;28;19917;-47
2022/01/03 06:21:41;;;;;;;;;;;17.50;41.50;;;;;;8301987;28;20290;-46
2022/01/03 06:25:41;;;;;;;;;;;17.50;41.50;;;;;;8302086;28;19933;-48
2022/01/03 06:29:42;;;;;;;;;;;17.50;41.50;;;;;;8302137;28;19967;-48
2022/01/03 06:33:42;;;;;;;;;;;17.50;41.40;;;;;;8302169;28;19972;-48
2022/01/03 06:37:43;;;;;;;;;;;17.50;41.50;;;;;;8301398;28;19940;-47
2022/01/03 06:41:44;;;;;;;;;;;17.50;41.50;;;;;;8301886;28;19921;-48
2022/01/03 06:45:44;;;;;;;;;;;17.50;41.50;;;;;;8302258;28;20371;-48
2022/01/03 06:49:45;;;;;;;;;;;17.50;41.50;;;;;;8301242;28;19925;-47
2022/01/03 06:53:46;;;;;;;;;;;17.50;41.40;;;;;;8301699;28;19967;-47
2022/01/03 06:57:47;;;;;;;;;;;17.50;41.50;;;;;;8301512;28;19917;-47
2022/01/03 07:01:47;;;;;;;;;;;17.50;41.50;;;;;;8300750;28;20036;-47
2022/01/03 07:05:48;;;;;;;;;;;17.50;41.50;;;;;;8301562;28;20333;-46
2022/01/03 07:09:48;;;;;;;;;;;17.50;41.50;;;;;;8301222;28;19917;-47
2022/01/03 07:13:52;;;;;;;;;;;17.50;41.50;;;;;;8300506;28;19924;-46
2022/01/03 07:22:12;;;;;;;;;;;17.50;41.50;;;;;;8302383;28;19928;-46
2022/01/03 07:26:13;;;;;;;;;;;17.50;41.50;;;;;;8299475;28;19921;-47
2022/01/03 07:30:13;;;;;;;;;;;17.50;41.50;;;;;;8300544;28;19917;-46
2022/01/03 07:34:14;;;;;;;;;;;17.50;41.40;;;;;;8300185;28;19932;-48
2022/01/03 07:38:14;;;;;;;;;;;17.50;41.50;;;;;;8298975;28;19918;-48
2022/01/03 07:42:15;;;;;;;;;;;17.50;41.40;;;;;;8300085;28;20371;-47
2022/01/03 07:46:15;;;;;;;;;;;17.50;41.40;;;;;;8300013;28;19932;-47
2022/01/03 07:50:16;;;;;;;;;;;17.50;41.40;;;;;;8299131;28;19925;-46
2022/01/03 07:54:16;;;;;;;;;;;17.50;41.40;;;;;;8299752;28;19918;-48
2022/01/03 07:58:17;;;;;;;;;;;17.50;41.50;;;;;;8299465;28;20004;-50
2022/01/03 08:02:18;;;;;;;;;;;17.50;41.40;;;;;;8298943;28;19917;-47
2022/01/03 08:06:20;;;;;;;;;;;17.50;41.40;;;;;;8299595;28;19926;-47
2022/01/03 08:10:23;;;;;;;;;;;17.50;41.40;;;;;;8298075;28;19921;-46
2022/01/03 08:14:23;;;;;;;;;;;17.50;41.50;;;;;;8299243;28;19999;-46
2022/01/03 08:18:23;;;;;;;;;;;17.50;41.50;;;;;;8299143;28;19917;-47
2022/01/03 08:22:24;;;;;;;;;;;17.50;41.40;;;;;;8298433;28;19926;-47
2022/01/03 08:26:24;;;;;;;;;;;17.50;41.40;;;;;;8299059;28;19921;-48
2022/01/03 08:30:25;;;;;;;;;;;17.50;41.40;;;;;;8298621;28;20012;-47
2022/01/03 08:34:26;;;;;;;;;;;17.50;41.40;;;;;;8298064;28;19965;-47
2022/01/03 08:38:26;;;;;;;;;;;17.50;41.40;;;;;;8298411;28;20008;-46
2022/01/03 08:42:27;;;;;;;;;;;17.50;41.40;;;;;;8298340;28;19913;-48
2022/01/03 08:46:27;;;;;;;;;;;17.50;41.40;;;;;;8292513;28;19929;-47
2022/01/03 08:50:28;;;;;;;;;;;17.50;41.40;;;;;;8294967;28;19918;-47
2022/01/03 08:54:28;;;;;;;;;;;17.50;41.40;;;;;;8297483;28;19925;-51
2022/01/03 08:58:29;;;;;;;;;;;17.50;41.40;;;;;;8297497;28;19960;-46
2022/01/03 09:02:29;;;;;;;;;;;17.50;41.40;;;;;;8296739;28;19917;-49
2022/01/03 09:06:30;;;;;;;;;;;17.50;41.40;;;;;;8296994;28;19932;-48
2022/01/03 09:10:30;;;;;;;;;;;17.50;41.30;;;;;;8296885;28;20341;-47
2022/01/03 09:14:31;;;;;;;;;;;17.50;41.30;;;;;;8297502;28;20397;-49
2022/01/03 09:18:31;;;;;;;;;;;17.50;41.30;;;;;;8297312;28;19917;-51
2022/01/03 09:22:37;;;;;;;;;;;17.50;41.30;;;;;;8296951;28;19963;-48
2022/01/03 09:30:56;;;;;;;;;;;17.50;41.40;;;;;;8297391;28;20409;-49
2022/01/03 09:34:58;;;;;;;;;;;17.50;41.30;;;;;;8278764;28;19917;-48
2022/01/03 09:38:59;;;;;;;;;;;17.60;41.40;;;;;;8287414;28;19918;-47
2022/01/03 09:43:00;;;;;;;;;;;17.60;41.30;;;;;;8296661;28;19926;-50
2022/01/03 09:47:04;;;;;;;;;;;17.60;41.30;;;;;;8298112;28;20383;-47
2022/01/03 09:51:05;;;;;;;;;;;17.60;41.40;;;;;;8303449;28;20314;-47
2022/01/03 09:55:06;;;;;;;;;;;17.60;41.30;;;;;;8303348;28;19918;-48
2022/01/03 09:59:07;;;;;;;;;;;17.60;41.30;;;;;;8322136;28;19918;-48
2022/01/03 10:03:08;;;;;;;;;;;17.60;41.30;;;;;;8302993;28;20052;-48
2022/01/03 10:07:10;;;;;;;;;;;17.60;41.30;;;;;;8302892;28;19960;-49
2022/01/03 10:11:10;;;;;;;;;;;17.60;41.30;;;;;;8302271;28;19921;-53
2022/01/03 10:15:11;;;;;;;;;;;17.60;41.30;;;;;;8302683;28;20303;-47
2022/01/03 10:19:12;;;;;;;;;;;17.60;41.30;;;;;;8302764;28;20008;-50
2022/01/03 10:23:17;;;;;;;;;;;17.60;41.30;;;;;;8301973;28;19933;-50
2022/01/03 10:27:18;;;;;;;;;;;17.60;41.30;;;;;;8302552;28;20008;-47
2022/01/03 10:31:22;;;;;;;;;;;17.60;41.30;;;;;;8302107;28;19972;-47
2022/01/03 10:35:22;;;;;;;;;;;17.60;41.30;;;;;;8301587;28;19918;-50
2022/01/03 10:39:24;;;;;;;;;;;17.60;41.30;;;;;;8302067;28;19959;-48
2022/01/03 10:43:24;;;;;;;;;;;17.60;41.30;;;;;;8303049;28;20306;-48
2022/01/03 10:47:29;;;;;;;;;;;17.60;41.30;;;;;;8316738;28;19921;-49
2022/01/03 10:51:30;;;;;;;;;;;17.60;41.30;;;;;;8280610;28;19918;-50
2022/01/03 10:55:34;;;;;;;;;;;17.60;41.30;;;;;;8288353;28;20378;-49
2022/01/03 10:59:36;;;;;;;;;;;17.60;41.20;;;;;;8300464;28;19921;-49
2022/01/03 11:03:42;;;;;;;;;;;17.60;41.30;;;;;;8301039;28;20063;-48
2022/01/03 11:11:44;;;;;;;;;;;17.70;41.30;;;;;;8301547;28;20294;-49
2022/01/03 11:15:50;;;;;;;;;;;17.70;41.30;;;;;;8300909;28;19917;-50
2022/01/03 11:19:50;;;;;;;;;;;17.70;41.30;;;;;;8300282;28;19917;-51
2022/01/03 11:24:11;;;;;;;;;;;17.70;41.30;;;;;;8300927;28;19952;-48
2022/01/03 11:28:12;;;;;;;;;;;17.70;41.30;;;;;;8300016;28;20020;-48
2022/01/03 11:32:12;;;;;;;;;;;17.70;41.30;;;;;;8299911;28;19921;-46
2022/01/03 11:36:13;;;;;;;;;;;17.70;41.30;;;;;;8300381;28;19928;-51
2022/01/03 11:40:14;;;;;;;;;;;17.70;41.30;;;;;;8300182;28;19924;-49
2022/01/03 11:44:16;;;;;;;;;;;17.70;41.30;;;;;;8299366;28;19932;-48
2022/01/03 11:48:16;;;;;;;;;;;17.70;41.30;;;;;;8300467;28;19921;-50
2022/01/03 11:52:17;;;;;;;;;;;17.70;41.30;;;;;;8299842;28;19917;-49
2022/01/03 11:56:22;;;;;;;;;;;17.70;41.30;;;;;;8298953;28;19917;-52
2022/01/03 12:04:42;;;;;;;;;;;17.70;41.30;;;;;;8300460;28;19932;-46
2022/01/03 12:08:52;;;;;;;;;;;17.70;41.20;;;;;;8299204;28;19917;-49
2022/01/03 12:12:57;;;;;;;;;;;17.70;41.30;;;;;;8299332;28;19921;-46
2022/01/03 12:17:05;;;;;;;;;;;17.70;41.20;;;;;;8299161;28;19986;-46
2022/01/03 12:21:05;;;;;;;;;;;17.80;41.30;;;;;;8299244;28;19953;-47
2022/01/03 12:25:06;;;;;;;;;;;17.70;41.20;;;;;;8298785;28;19922;-47
2022/01/03 12:29:08;;;;;;;;;;;17.80;41.30;;;;;;8297996;28;19968;-51
2022/01/03 12:33:08;;;;;;;;;;;17.80;41.30;;;;;;8298605;28;19968;-50
2022/01/03 12:37:18;;;;;;;;;;;17.80;41.20;;;;;;8298441;28;20323;-49
2022/01/03 12:41:36;;;;;;;;;;;17.80;41.20;;;;;;8297759;28;19917;-52
2022/01/03 12:45:37;;;;;;;;;;;17.80;41.20;;;;;;8298178;28;20016;-49
2022/01/03 12:49:37;;;;;;;;;;;17.80;41.20;;;;;;8297657;28;19944;-50
2022/01/03 12:53:39;;;;;;;;;;;17.80;41.20;;;;;;8298332;28;19913;-51
2022/01/03 12:57:40;;;;;;;;;;;17.80;41.20;;;;;;8298230;28;19924;-50
2022/01/03 13:01:41;;;;;;;;;;;17.80;41.20;;;;;;8297932;28;19918;-50
2022/01/03 13:05:41;;;;;;;;;;;17.80;41.20;;;;;;8297908;28;19929;-50
2022/01/03 13:09:41;;;;;;;;;;;17.80;41.20;;;;;;8297734;28;19961;-49
2022/01/03 13:13:43;;;;;;;;;;;17.80;41.20;;;;;;8297418;28;19921;-50
2022/01/03 13:17:43;;;;;;;;;;;17.80;41.10;;;;;;8296899;28;19929;-50
2022/01/03 13:21:45;;;;;;;;;;;17.80;41.20;;;;;;8296776;28;20278;-49
2022/01/03 13:25:46;;;;;;;;;;;17.90;41.20;;;;;;8296896;28;19929;-50
2022/01/03 13:29:59;;;;;;;;;;;17.90;41.20;;;;;;8297448;28;20387;-47
2022/01/03 13:34:01;;;;;;;;;;;17.80;41.20;;;;;;8297748;28;19952;-49
2022/01/03 13:38:14;;;;;;;;;;;17.90;41.20;;;;;;8296805;28;20008;-50
2022/01/03 13:42:24;;;;;;;;;;;17.80;41.10;;;;;;8297238;28;19917;-50
2022/01/03 13:50:44;;;;;;;;;;;17.90;41.10;;;;;;8297323;28;19964;-49
2022/01/03 13:54:45;;;;;;;;;;;17.90;41.10;;;;;;8296780;28;20367;-48
2022/01/03 13:58:46;;;;;;;;;;;17.90;41.10;;;;;;8296682;28;20282;-49
2022/01/03 14:02:48;;;;;;;;;;;17.90;41.10;;;;;;8296942;28;19971;-49
2022/01/03 14:07:03;;;;;;;;;;;17.90;41.60;;;;;;8296605;28;19960;-50
2022/01/03 14:11:03;;;;;;;;;;;17.90;41.10;;;;;;8295652;28;19921;-46
2022/01/03 14:15:05;;;;;;;;;;;17.90;41.10;;;;;;8296596;28;19983;-46
2022/01/03 14:19:10;;;;;;;;;;;17.90;41.10;;;;;;8296831;28;19914;-47
2022/01/03 14:23:16;;;;;;;;;;;17.90;41.10;;;;;;8295992;28;19929;-53
2022/01/03 14:27:17;;;;;;;;;;;17.90;41.20;;;;;;8296649;28;19918;-48
2022/01/03 14:31:18;;;;;;;;;;;17.90;41.20;;;;;;8296518;28;19925;-49
2022/01/03 14:35:32;;;;;;;;;;;17.90;41.20;;;;;;8300439;28;19917;-50
2022/01/03 14:39:49;;;;;;;;;;;17.90;41.20;;;;;;8302363;28;19971;-47
2022/01/03 14:43:54;;;;;;;;;;;17.90;41.20;;;;;;8301615;28;19925;-48
2022/01/03 14:47:58;;;;;;;;;;;17.90;41.20;;;;;;8301820;28;19921;-49
2022/01/03 14:51:59;;;;;;;;;;;17.90;41.20;;;;;;8301731;28;20000;-52
2022/01/03 14:56:00;;;;;;;;;;;17.90;41.20;;;;;;8300897;28;19952;-49
2022/01/03 15:00:01;;;;;;;;;;;17.90;41.20;;;;;;8301623;28;19921;-51
2022/01/03 15:04:02;;;;;;;;;;;17.90;41.20;;;;;;8301453;28;20452;-50
2022/01/03 15:08:03;;;;;;;;;;;17.90;41.20;;;;;;8300897;28;19964;-48
2022/01/03 15:12:04;;;;;;;;;;;17.90;41.20;;;;;;8300949;28;19917;-48
2022/01/03 15:16:05;;;;;;;;;;;17.90;41.20;;;;;;8300942;28;20295;-49
2022/01/03 15:20:06;;;;;;;;;;;17.90;41.30;;;;;;8300188;28;19913;-49
2022/01/03 15:24:07;;;;;;;;;;;17.90;41.30;;;;;;8300786;28;19957;-48
2022/01/03 15:28:07;;;;;;;;;;;17.90;41.30;;;;;;8300610;28;19980;-50
2022/01/03 15:32:08;;;;;;;;;;;17.90;41.30;;;;;;8299969;28;19917;-52
2022/01/03 15:36:09;;;;;;;;;;;17.90;41.30;;;;;;8300617;28;20425;-48
2022/01/03 15:40:10;;;;;;;;;;;17.90;41.30;;;;;;8300267;28;19921;-49
2022/01/03 15:44:10;;;;;;;;;;;17.90;41.30;;;;;;8299130;28;19940;-51
2022/01/03 15:48:11;;;;;;;;;;;17.90;41.30;;;;;;8299965;28;19921;-52
2022/01/03 15:52:11;;;;;;;;;;;17.90;41.30;;;;;;8299875;28;19917;-49
2022/01/03 15:56:12;;;;;;;;;;;17.90;41.40;;;;;;8299198;28;20008;-48
2022/01/03 16:00:13;;;;;;;;;;;17.90;41.40;;;;;;8299711;28;19929;-47
2022/01/03 16:04:14;;;;;;;;;;;17.90;41.40;;;;;;8299624;28;19949;-47
2022/01/03 16:08:14;;;;;;;;;;;17.90;41.40;;;;;;8298872;28;19917;-49
2022/01/03 16:12:15;;;;;;;;;;;17.90;41.40;;;;;;8299335;28;20379;-48
2022/01/03 16:16:16;;;;;;;;;;;17.90;41.40;;;;;;8299070;28;19963;-47
2022/01/03 16:20:16;;;;;;;;;;;17.90;41.40;;;;;;8298766;28;19913;-48
2022/01/03 16:24:17;;;;;;;;;;;17.90;41.40;;;;;;8299030;28;20467;-48
2022/01/03 16:28:17;;;;;;;;;;;17.90;41.40;;;;;;8298851;28;19947;-48
2022/01/03 16:32:20;;;;;;;;;;;17.90;41.40;;;;;;8298100;28;20315;-47
2022/01/03 16:36:21;;;;;;;;;;;17.90;41.40;;;;;;8298687;28;19976;-48
2022/01/03 16:40:22;;;;;;;;;;;17.90;41.40;;;;;;8298436;28;19923;-49
2022/01/03 16:44:22;;;;;;;;;;;17.90;41.40;;;;;;8297990;28;19945;-47
2022/01/03 16:48:23;;;;;;;;;;;17.90;41.40;;;;;;8298181;28;19922;-48
2022/01/03 16:52:23;;;;;;;;;;;17.90;41.40;;;;;;8297550;28;20290;-49
2022/01/03 16:56:24;;;;;;;;;;;17.90;41.40;;;;;;8296744;28;20272;-47
2022/01/03 17:00:25;;;;;;;;;;;17.90;41.40;;;;;;8298094;28;20394;-50
2022/01/03 17:04:25;;;;;;;;;;;17.90;41.40;;;;;;8297114;28;19926;-49
2022/01/03 17:08:26;;;;;;;;;;;17.90;41.40;;;;;;8297014;28;19918;-50
2022/01/03 17:12:26;;;;;;;;;;;17.90;41.40;;;;;;8297611;28;20390;-48
2022/01/03 17:16:27;;;;;;;;;;;17.90;41.40;;;;;;8297222;28;19996;-49
2022/01/03 17:20:27;;;;;;;;;;;17.90;41.40;;;;;;8297892;28;19921;-50
2022/01/03 17:24:28;;;;;;;;;;;17.90;41.40;;;;;;8297419;28;19933;-46
2022/01/03 17:28:28;;;;;;;;;;;17.90;41.40;;;;;;8297224;28;19989;-47
2022/01/03 17:32:28;;;;;;;;;;;17.90;41.40;;;;;;8296664;28;19918;-49
2022/01/03 17:36:31;;;;;;;;;;;17.90;41.40;;;;;;8296858;28;19918;-48
2022/01/03 17:40:32;;;;;;;;;;;17.90;41.40;;;;;;8296955;28;19921;-48
2022/01/03 17:44:32;;;;;;;;;;;17.90;41.40;;;;;;8296846;28;19925;-50
2022/01/03 17:48:33;;;;;;;;;;;17.90;41.90;;;;;;8297031;28;19968;-47
2022/01/03 17:52:34;;;;;;;;;;;17.90;41.40;;;;;;8296566;28;20014;-47
2022/01/03 17:56:35;;;;;;;;;;;17.90;41.40;;;;;;8296843;28;20272;-48
2022/01/03 18:00:36;;;;;;;;;;;17.90;41.40;;;;;;8297074;28;20347;-48
2022/01/03 18:04:37;;;;;;;;;;;17.90;41.40;;;;;;8296334;28;19925;-49
2022/01/03 18:08:39;;;;;;;;;;;17.90;41.40;;;;;;8299116;28;19918;-46
2022/01/03 18:12:47;;;;;;;;;;;17.90;41.40;;;;;;8303132;28;20422;-48
2022/01/03 18:16:47;;;;;;;;;;;17.90;41.40;;;;;;8302186;28;19917;-49
2022/01/03 18:20:48;;;;;;;;;;;17.90;41.40;;;;;;8303175;28;20025;-47
2022/01/03 18:24:49;;;;;;;;;;;17.90;41.40;;;;;;8303075;28;19961;-48
2022/01/03 18:28:51;;;;;;;;;;;17.90;41.40;;;;;;8301960;28;19925;-48
2022/01/03 18:32:51;;;;;;;;;;;17.90;41.40;;;;;;8302439;28;19924;-49
2022/01/03 18:36:52;;;;;;;;;;;17.90;41.40;;;;;;8302316;28;19924;-47
2022/01/03 18:40:52;;;;;;;;;;;17.90;41.40;;;;;;8301814;28;19955;-47
2022/01/03 18:44:53;;;;;;;;;;;17.90;41.40;;;;;;8301877;28;20339;-49
2022/01/03 18:48:53;;;;;;;;;;;17.90;41.40;;;;;;8301770;28;20350;-50
2022/01/03 18:52:54;;;;;;;;;;;17.90;41.40;;;;;;8301364;28;20328;-48
2022/01/03 18:56:55;;;;;;;;;;;17.90;41.50;;;;;;8301982;28;19918;-51
2022/01/03 19:00:56;;;;;;;;;;;17.90;41.40;;;;;;8301741;28;19922;-51
2022/01/03 19:04:56;;;;;;;;;;;17.90;41.40;;;;;;8300793;28;19976;-48
2022/01/03 19:08:57;;;;;;;;;;;17.90;41.40;;;;;;8301529;28;20016;-48
2022/01/03 19:12:58;;;;;;;;;;;17.90;41.40;;;;;;8301253;28;19922;-49
2022/01/03 19:16:59;;;;;;;;;;;17.90;41.50;;;;;;8300481;28;19928;-47
2022/01/03 19:20:59;;;;;;;;;;;17.90;41.40;;;;;;8299886;28;19917;-51
2022/01/03 19:25:00;;;;;;;;;;;17.90;41.40;;;;;;8300683;28;19925;-48
2022/01/03 19:29:02;;;;;;;;;;;17.90;41.40;;;;;;8300226;28;19917;-49
2022/01/03 19:41:26;;;;;;;;;;;17.90;41.40;;;;;;8300081;28;19924;-51
2022/01/03 19:45:27;;;;;;;;;;;17.90;41.40;;;;;;8300151;28;20251;-49
2022/01/03 19:49:28;;;;;;;;;;;17.90;41.50;;;;;;8299352;28;19917;-48
2022/01/03 19:53:29;;;;;;;;;;;17.90;41.40;;;;;;8299859;28;19932;-48
2022/01/03 19:57:29;;;;;;;;;;;17.90;41.40;;;;;;8299858;28;19917;-46
2022/01/03 20:01:31;;;;;;;;;;;17.90;41.40;;;;;;8299289;28;19922;-47
2022/01/03 20:05:31;;;;;;;;;;;17.90;41.50;;;;;;8298476;28;19933;-47
2022/01/03 20:09:34;;;;;;;;;;;17.80;41.40;;;;;;8299373;28;19917;-47
2022/01/03 20:13:38;;;;;;;;;;;17.90;41.50;;;;;;8299220;28;19921;-47
2022/01/03 20:17:39;;;;;;;;;;;17.90;41.50;;;;;;8299118;28;19949;-47
2022/01/03 20:21:39;;;;;;;;;;;17.90;41.50;;;;;;8299334;28;20452;-47
2022/01/03 20:25:40;;;;;;;;;;;17.80;41.40;;;;;;8298308;28;19925;-47
2022/01/03 20:29:41;;;;;;;;;;;17.90;41.50;;;;;;8298936;28;19987;-47
2022/01/03 20:33:42;;;;;;;;;;;17.90;41.50;;;;;;8298661;28;19917;-50
2022/01/03 20:37:43;;;;;;;;;;;17.90;41.50;;;;;;8297944;28;19918;-47
2022/01/03 20:41:45;;;;;;;;;;;17.80;41.50;;;;;;8298510;28;19928;-48
2022/01/03 20:45:46;;;;;;;;;;;17.90;41.60;;;;;;8298411;28;19925;-46
2022/01/03 20:49:46;;;;;;;;;;;17.90;41.60;;;;;;8297655;28;19917;-47
2022/01/03 20:53:48;;;;;;;;;;;17.90;41.60;;;;;;8298257;28;19918;-51
2022/01/03 20:57:49;;;;;;;;;;;17.90;41.60;;;;;;8298107;28;19963;-49
2022/01/03 21:01:50;;;;;;;;;;;17.90;41.60;;;;;;8297662;28;19918;-48
2022/01/03 21:05:51;;;;;;;;;;;17.90;41.60;;;;;;8297682;28;20012;-48
2022/01/03 21:09:51;;;;;;;;;;;17.90;41.60;;;;;;8297829;28;19917;-48
2022/01/03 21:13:52;;;;;;;;;;;17.90;41.60;;;;;;8297221;28;19987;-49
2022/01/03 21:17:52;;;;;;;;;;;17.80;41.60;;;;;;8297529;28;20298;-47
2022/01/03 21:21:53;;;;;;;;;;;17.90;41.60;;;;;;8297866;28;20306;-48
2022/01/03 21:25:53;;;;;;;;;;;17.80;41.60;;;;;;8297008;28;19948;-48
2022/01/03 21:29:54;;;;;;;;;;;17.90;41.60;;;;;;8297335;28;19936;-47
2022/01/03 21:33:54;;;;;;;;;;;17.90;41.60;;;;;;8297393;28;20267;-47
2022/01/03 21:37:55;;;;;;;;;;;17.90;41.70;;;;;;8296813;28;19918;-47
2022/01/03 21:41:55;;;;;;;;;;;17.90;41.60;;;;;;8297453;28;20004;-48
2022/01/03 21:45:56;;;;;;;;;;;17.90;41.60;;;;;;8303674;28;19932;-48
2022/01/03 21:49:57;;;;;;;;;;;17.90;41.60;;;;;;8303206;28;19917;-49
2022/01/03 21:53:57;;;;;;;;;;;17.90;41.60;;;;;;8303599;28;20398;-48
2022/01/03 21:57:58;;;;;;;;;;;17.90;41.60;;;;;;8303609;28;20425;-48
2022/01/03 22:01:58;;;;;;;;;;;17.90;41.60;;;;;;8302947;28;19925;-48
2022/01/03 22:05:59;;;;;;;;;;;17.90;41.50;;;;;;8303174;28;19929;-48
2022/01/03 22:09:59;;;;;;;;;;;17.90;41.60;;;;;;8302914;28;20375;-48
2022/01/03 22:14:00;;;;;;;;;;;17.80;41.50;;;;;;8302383;28;19917;-47
2022/01/03 22:18:00;;;;;;;;;;;17.90;41.60;;;;;;8302850;28;20429;-48
2022/01/03 22:22:01;;;;;;;;;;;17.90;41.60;;;;;;8302983;28;19917;-49
2022/01/03 22:26:02;;;;;;;;;;;17.90;41.60;;;;;;8301933;28;19929;-48
2022/01/03 22:30:04;;;;;;;;;;;17.90;41.60;;;;;;8302485;28;20345;-49
2022/01/03 22:34:04;;;;;;;;;;;17.90;41.60;;;;;;8302364;28;20052;-47
2022/01/03 22:38:05;;;;;;;;;;;17.90;41.60;;;;;;8301815;28;20379;-48
2022/01/03 22:42:06;;;;;;;;;;;17.80;41.60;;;;;;8302756;28;19941;-48
2022/01/03 22:46:07;;;;;;;;;;;17.80;41.60;;;;;;8301686;28;19925;-47
2022/01/03 22:50:08;;;;;;;;;;;17.80;41.60;;;;;;8301271;28;19956;-49
2022/01/03 22:54:10;;;;;;;;;;;17.80;41.60;;;;;;8301740;28;19924;-49
2022/01/03 22:58:11;;;;;;;;;;;17.80;41.60;;;;;;8301595;28;19989;-49
2022/01/03 23:02:11;;;;;;;;;;;17.80;41.70;;;;;;8300418;28;19917;-48
2022/01/03 23:06:15;;;;;;;;;;;17.80;41.70;;;;;;8300445;28;19953;-48
2022/01/03 23:10:15;;;;;;;;;;;17.80;41.70;;;;;;8301333;28;19917;-47
2022/01/03 23:14:16;;;;;;;;;;;17.80;41.70;;;;;;8300670;28;19924;-51
2022/01/03 23:18:16;;;;;;;;;;;17.80;41.70;;;;;;8301252;28;19918;-48
2022/01/03 23:22:17;;;;;;;;;;;17.80;41.70;;;;;;8301055;28;19917;-49
2022/01/03 23:26:18;;;;;;;;;;;17.80;41.70;;;;;;8300088;28;20414;-48
2022/01/03 23:30:19;;;;;;;;;;;17.80;41.70;;;;;;8300759;28;19925;-51
2022/01/03 23:34:22;;;;;;;;;;;17.80;41.70;;;;;;8300125;28;20053;-49
2022/01/03 23:38:23;;;;;;;;;;;17.80;41.70;;;;;;8300633;28;20451;-51
2022/01/03 23:42:24;;;;;;;;;;;17.80;41.70;;;;;;8300319;28;19948;-48
2022/01/03 23:46:25;;;;;;;;;;;17.80;41.70;;;;;;8299944;28;20016;-48
2022/01/03 23:50:26;;;;;;;;;;;17.80;41.70;;;;;;8299796;28;19917;-46
2022/01/03 23:54:26;;;;;;;;;;;17.80;41.80;;;;;;8299911;28;19918;-49
2022/01/03 23:58:27;;;;;;;;;;;17.80;41.80;;;;;;8299259;28;20341;-49
